sensor_id;sensor_type;location;lat;lon;timestamp;temperature;humidity
11922;DHT22;6021;51.182;3.160;2022-11-15T00:01:17;10.50;99.90
11922;DHT22;6021;51.182;3.160;2022-11-15T00:03:45;10.50;99.90
11922;DHT22;6021;51.182;3.160;2022-11-15T00:06:14;10.50;99.90
11922;DHT22;6021;51.182;3.160;2022-11-15T00:08:42;10.40;99.90
11922;DHT22;6021;51.182;3.160;2022-11-15T00:11:12;10.60;99.90
11922;DHT22;6021;51.182;3.160;2022-11-15T00:13:40;10.50;99.90
11922;DHT22;6021;51.182;3.160;2022-11-15T00:16:09;10.60;99.90
11922;DHT22;6021;51.182;3.160;2022-11-15T00:18:38;10.70;99.90
11922;DHT22;6021;51.182;3.160;2022-11-15T00:21:09;10.70;99.90
11922;DHT22;6021;51.182;3.160;2022-11-15T00:23:37;10.90;99.90
11922;DHT22;6021;51.182;3.160;2022-11-15T00:26:06;10.90;99.90
11922;DHT22;6021;51.182;3.160;2022-11-15T00:28:34;10.80;99.90
11922;DHT22;6021;51.182;3.160;2022-11-15T00:31:04;10.90;99.90
11922;DHT22;6021;51.182;3.160;2022-11-15T00:33:33;10.90;99.90
11922;DHT22;6021;51.182;3.160;2022-11-15T00:36:07;10.90;99.90
11922;DHT22;6021;51.182;3.160;2022-11-15T00:38:39;11.00;99.90
11922;DHT22;6021;51.182;3.160;2022-11-15T00:41:08;11.00;99.90
11922;DHT22;6021;51.182;3.160;2022-11-15T00:43:37;10.90;99.90
11922;DHT22;6021;51.182;3.160;2022-11-15T00:46:07;10.90;99.90
11922;DHT22;6021;51.182;3.160;2022-11-15T00:48:36;11.10;99.90
11922;DHT22;6021;51.182;3.160;2022-11-15T00:51:05;11.00;99.90
11922;DHT22;6021;51.182;3.160;2022-11-15T00:53:33;11.00;99.90
11922;DHT22;6021;51.182;3.160;2022-11-15T00:56:02;11.00;99.90
11922;DHT22;6021;51.182;3.160;2022-11-15T00:58:30;11.00;99.90
11922;DHT22;6021;51.182;3.160;2022-11-15T01:01:10;11.10;99.90
11922;DHT22;6021;51.182;3.160;2022-11-15T01:03:40;11.20;99.90
11922;DHT22;6021;51.182;3.160;2022-11-15T01:06:09;11.20;99.90
11922;DHT22;6021;51.182;3.160;2022-11-15T01:08:39;11.20;99.90
11922;DHT22;6021;51.182;3.160;2022-11-15T01:11:10;11.10;99.90
11922;DHT22;6021;51.182;3.160;2022-11-15T01:13:39;11.20;99.90
11922;DHT22;6021;51.182;3.160;2022-11-15T01:16:11;11.40;99.90
11922;DHT22;6021;51.182;3.160;2022-11-15T01:18:40;11.30;99.90
11922;DHT22;6021;51.182;3.160;2022-11-15T01:21:10;11.30;99.90
11922;DHT22;6021;51.182;3.160;2022-11-15T01:23:38;11.30;99.90
11922;DHT22;6021;51.182;3.160;2022-11-15T01:26:09;11.30;99.90
11922;DHT22;6021;51.182;3.160;2022-11-15T01:28:39;11.30;99.90
11922;DHT22;6021;51.182;3.160;2022-11-15T01:31:21;11.10;99.90
11922;DHT22;6021;51.182;3.160;2022-11-15T01:33:46;11.00;99.90
11922;DHT22;6021;51.182;3.160;2022-11-15T01:36:18;11.10;99.90
11922;DHT22;6021;51.182;3.160;2022-11-15T01:38:47;11.20;99.90
11922;DHT22;6021;51.182;3.160;2022-11-15T01:41:18;11.30;99.90
11922;DHT22;6021;51.182;3.160;2022-11-15T01:43:52;11.30;99.90
11922;DHT22;6021;51.182;3.160;2022-11-15T01:46:34;11.60;99.90
11922;DHT22;6021;51.182;3.160;2022-11-15T01:49:01;11.20;99.90
11922;DHT22;6021;51.182;3.160;2022-11-15T01:51:32;11.20;99.90
11922;DHT22;6021;51.182;3.160;2022-11-15T01:54:04;11.00;99.90
11922;DHT22;6021;51.182;3.160;2022-11-15T01:56:36;11.50;99.90
11922;DHT22;6021;51.182;3.160;2022-11-15T01:59:05;11.20;99.90
11922;DHT22;6021;51.182;3.160;2022-11-15T02:01:35;11.30;99.90
11922;DHT22;6021;51.182;3.160;2022-11-15T02:04:10;11.20;99.90
11922;DHT22;6021;51.182;3.160;2022-11-15T02:06:38;11.60;99.90
11922;DHT22;6021;51.182;3.160;2022-11-15T02:09:07;11.50;99.90
11922;DHT22;6021;51.182;3.160;2022-11-15T02:11:35;11.40;99.90
11922;DHT22;6021;51.182;3.160;2022-11-15T02:14:04;11.40;99.90
11922;DHT22;6021;51.182;3.160;2022-11-15T02:36:15;11.40;99.90
11922;DHT22;6021;51.182;3.160;2022-11-15T02:38:54;11.30;99.90
11922;DHT22;6021;51.182;3.160;2022-11-15T02:44:12;11.30;99.90
11922;DHT22;6021;51.182;3.160;2022-11-15T02:47:00;11.10;99.90
11922;DHT22;6021;51.182;3.160;2022-11-15T02:49:55;11.20;99.90
11922;DHT22;6021;51.182;3.160;2022-11-15T02:52:23;11.10;99.90
11922;DHT22;6021;51.182;3.160;2022-11-15T02:54:59;11.10;99.90
11922;DHT22;6021;51.182;3.160;2022-11-15T02:57:51;11.10;99.90
11922;DHT22;6021;51.182;3.160;2022-11-15T03:00:19;11.10;99.90
11922;DHT22;6021;51.182;3.160;2022-11-15T03:03:18;11.10;99.90
11922;DHT22;6021;51.182;3.160;2022-11-15T03:05:33;11.00;99.90
11922;DHT22;6021;51.182;3.160;2022-11-15T03:11:02;11.20;99.90
11922;DHT22;6021;51.182;3.160;2022-11-15T03:13:33;10.90;99.90
11922;DHT22;6021;51.182;3.160;2022-11-15T03:16:09;11.00;99.90
11922;DHT22;6021;51.182;3.160;2022-11-15T03:18:40;11.00;99.90
11922;DHT22;6021;51.182;3.160;2022-11-15T03:21:11;11.00;99.90
11922;DHT22;6021;51.182;3.160;2022-11-15T03:23:40;11.00;99.90
11922;DHT22;6021;51.182;3.160;2022-11-15T03:26:11;11.00;99.90
11922;DHT22;6021;51.182;3.160;2022-11-15T03:28:56;11.00;99.90
11922;DHT22;6021;51.182;3.160;2022-11-15T03:31:22;11.00;99.90
11922;DHT22;6021;51.182;3.160;2022-11-15T03:34:11;11.10;99.90
11922;DHT22;6021;51.182;3.160;2022-11-15T03:36:41;11.00;99.90
11922;DHT22;6021;51.182;3.160;2022-11-15T03:39:09;11.10;99.90
11922;DHT22;6021;51.182;3.160;2022-11-15T03:44:33;10.50;99.90
11922;DHT22;6021;51.182;3.160;2022-11-15T03:49:49;10.60;99.90
11922;DHT22;6021;51.182;3.160;2022-11-15T03:52:11;10.60;99.90
11922;DHT22;6021;51.182;3.160;2022-11-15T03:54:51;10.50;99.90
11922;DHT22;6021;51.182;3.160;2022-11-15T03:57:20;10.40;99.90
11922;DHT22;6021;51.182;3.160;2022-11-15T03:59:49;10.50;99.90
11922;DHT22;6021;51.182;3.160;2022-11-15T04:02:17;10.50;99.90
11922;DHT22;6021;51.182;3.160;2022-11-15T04:04:45;10.70;99.90
11922;DHT22;6021;51.182;3.160;2022-11-15T04:07:14;10.40;99.90
11922;DHT22;6021;51.182;3.160;2022-11-15T04:09:42;10.40;99.90
11922;DHT22;6021;51.182;3.160;2022-11-15T04:12:33;10.40;99.90
11922;DHT22;6021;51.182;3.160;2022-11-15T04:15:04;10.40;99.90
11922;DHT22;6021;51.182;3.160;2022-11-15T04:17:40;10.30;99.90
11922;DHT22;6021;51.182;3.160;2022-11-15T04:20:20;10.30;99.90
11922;DHT22;6021;51.182;3.160;2022-11-15T04:23:12;10.10;99.90
11922;DHT22;6021;51.182;3.160;2022-11-15T04:26:01;10.30;99.90
11922;DHT22;6021;51.182;3.160;2022-11-15T04:28:30;10.10;99.90
11922;DHT22;6021;51.182;3.160;2022-11-15T04:30:58;10.30;99.90
11922;DHT22;6021;51.182;3.160;2022-11-15T04:33:27;10.00;99.90
11922;DHT22;6021;51.182;3.160;2022-11-15T04:35:55;10.20;99.90
11922;DHT22;6021;51.182;3.160;2022-11-15T04:38:41;10.20;99.90
11922;DHT22;6021;51.182;3.160;2022-11-15T04:41:10;10.30;99.90
11922;DHT22;6021;51.182;3.160;2022-11-15T04:43:38;10.40;99.90
11922;DHT22;6021;51.182;3.160;2022-11-15T04:46:06;10.10;99.90
11922;DHT22;6021;51.182;3.160;2022-11-15T04:48:35;10.00;99.90
11922;DHT22;6021;51.182;3.160;2022-11-15T04:51:03;10.00;99.90
11922;DHT22;6021;51.182;3.160;2022-11-15T04:53:32;10.00;99.90
11922;DHT22;6021;51.182;3.160;2022-11-15T04:56:00;10.00;99.90
11922;DHT22;6021;51.182;3.160;2022-11-15T04:58:28;10.10;99.90
11922;DHT22;6021;51.182;3.160;2022-11-15T05:00:57;9.90;99.90
11922;DHT22;6021;51.182;3.160;2022-11-15T05:03:25;9.80;99.90
11922;DHT22;6021;51.182;3.160;2022-11-15T05:06:11;9.80;99.90
11922;DHT22;6021;51.182;3.160;2022-11-15T05:08:39;9.80;99.90
11922;DHT22;6021;51.182;3.160;2022-11-15T05:11:08;9.90;99.90
11922;DHT22;6021;51.182;3.160;2022-11-15T05:13:36;9.70;99.90
11922;DHT22;6021;51.182;3.160;2022-11-15T05:16:04;9.60;99.90
11922;DHT22;6021;51.182;3.160;2022-11-15T05:18:33;9.70;99.90
11922;DHT22;6021;51.182;3.160;2022-11-15T05:21:06;9.80;99.90
11922;DHT22;6021;51.182;3.160;2022-11-15T05:23:34;9.50;99.90
11922;DHT22;6021;51.182;3.160;2022-11-15T05:26:04;9.80;99.90
11922;DHT22;6021;51.182;3.160;2022-11-15T05:28:33;9.50;99.90
11922;DHT22;6021;51.182;3.160;2022-11-15T05:31:14;9.50;99.90
11922;DHT22;6021;51.182;3.160;2022-11-15T05:33:39;9.50;99.90
11922;DHT22;6021;51.182;3.160;2022-11-15T05:36:12;9.50;99.90
11922;DHT22;6021;51.182;3.160;2022-11-15T05:38:39;9.40;99.90
11922;DHT22;6021;51.182;3.160;2022-11-15T05:41:08;9.30;99.90
11922;DHT22;6021;51.182;3.160;2022-11-15T05:43:38;9.50;99.90
11922;DHT22;6021;51.182;3.160;2022-11-15T05:46:08;9.40;99.90
11922;DHT22;6021;51.182;3.160;2022-11-15T05:48:37;9.40;99.90
11922;DHT22;6021;51.182;3.160;2022-11-15T05:51:08;9.40;99.90
11922;DHT22;6021;51.182;3.160;2022-11-15T05:53:37;9.40;99.90
11922;DHT22;6021;51.182;3.160;2022-11-15T05:56:06;9.20;99.90
11922;DHT22;6021;51.182;3.160;2022-11-15T05:58:34;9.10;99.90
11922;DHT22;6021;51.182;3.160;2022-11-15T06:01:03;9.20;99.90
11922;DHT22;6021;51.182;3.160;2022-11-15T06:03:32;9.10;99.90
11922;DHT22;6021;51.182;3.160;2022-11-15T06:06:00;9.10;99.90
11922;DHT22;6021;51.182;3.160;2022-11-15T06:08:29;9.10;99.90
11922;DHT22;6021;51.182;3.160;2022-11-15T06:11:02;9.10;99.90
11922;DHT22;6021;51.182;3.160;2022-11-15T06:13:27;9.20;99.90
11922;DHT22;6021;51.182;3.160;2022-11-15T06:15:58;9.10;99.90
11922;DHT22;6021;51.182;3.160;2022-11-15T06:18:26;9.10;99.90
11922;DHT22;6021;51.182;3.160;2022-11-15T06:20:58;9.00;99.90
11922;DHT22;6021;51.182;3.160;2022-11-15T06:23:26;9.10;99.90
11922;DHT22;6021;51.182;3.160;2022-11-15T06:25:57;9.00;99.90
11922;DHT22;6021;51.182;3.160;2022-11-15T06:28:30;9.10;99.90
11922;DHT22;6021;51.182;3.160;2022-11-15T06:31:07;9.00;99.90
11922;DHT22;6021;51.182;3.160;2022-11-15T06:33:35;9.30;99.90
11922;DHT22;6021;51.182;3.160;2022-11-15T06:36:06;8.80;99.90
11922;DHT22;6021;51.182;3.160;2022-11-15T06:38:35;8.80;99.90
11922;DHT22;6021;51.182;3.160;2022-11-15T06:41:06;8.80;99.90
11922;DHT22;6021;51.182;3.160;2022-11-15T06:43:35;8.80;99.90
11922;DHT22;6021;51.182;3.160;2022-11-15T06:46:05;8.80;99.90
11922;DHT22;6021;51.182;3.160;2022-11-15T06:48:34;8.80;99.90
11922;DHT22;6021;51.182;3.160;2022-11-15T06:51:04;9.10;99.90
11922;DHT22;6021;51.182;3.160;2022-11-15T06:53:32;8.90;99.90
11922;DHT22;6021;51.182;3.160;2022-11-15T06:56:07;8.70;99.90
11922;DHT22;6021;51.182;3.160;2022-11-15T06:58:31;8.90;99.90
11922;DHT22;6021;51.182;3.160;2022-11-15T07:01:02;8.70;99.90
11922;DHT22;6021;51.182;3.160;2022-11-15T07:03:31;8.70;99.90
11922;DHT22;6021;51.182;3.160;2022-11-15T07:05:59;8.70;99.90
11922;DHT22;6021;51.182;3.160;2022-11-15T07:08:28;8.80;99.90
11922;DHT22;6021;51.182;3.160;2022-11-15T07:11:04;8.80;99.90
11922;DHT22;6021;51.182;3.160;2022-11-15T07:13:33;8.90;99.90
11922;DHT22;6021;51.182;3.160;2022-11-15T07:16:09;8.70;99.90
11922;DHT22;6021;51.182;3.160;2022-11-15T07:18:36;8.70;99.90
11922;DHT22;6021;51.182;3.160;2022-11-15T07:21:07;8.90;99.90
11922;DHT22;6021;51.182;3.160;2022-11-15T07:23:39;8.70;99.90
11922;DHT22;6021;51.182;3.160;2022-11-15T07:26:08;8.80;99.90
11922;DHT22;6021;51.182;3.160;2022-11-15T07:28:36;8.80;99.90
11922;DHT22;6021;51.182;3.160;2022-11-15T07:31:06;8.90;99.90
11922;DHT22;6021;51.182;3.160;2022-11-15T07:33:35;9.10;99.90
11922;DHT22;6021;51.182;3.160;2022-11-15T07:36:06;9.10;99.90
11922;DHT22;6021;51.182;3.160;2022-11-15T07:38:34;9.00;99.90
11922;DHT22;6021;51.182;3.160;2022-11-15T07:41:04;9.00;99.90
11922;DHT22;6021;51.182;3.160;2022-11-15T07:43:33;8.90;99.90
11922;DHT22;6021;51.182;3.160;2022-11-15T07:46:07;9.00;99.90
11922;DHT22;6021;51.182;3.160;2022-11-15T07:48:38;9.10;99.90
11922;DHT22;6021;51.182;3.160;2022-11-15T07:51:09;9.10;99.90
11922;DHT22;6021;51.182;3.160;2022-11-15T07:53:38;8.90;99.90
11922;DHT22;6021;51.182;3.160;2022-11-15T07:56:07;9.00;99.90
11922;DHT22;6021;51.182;3.160;2022-11-15T07:58:36;9.00;99.90
11922;DHT22;6021;51.182;3.160;2022-11-15T08:01:05;9.10;99.90
11922;DHT22;6021;51.182;3.160;2022-11-15T08:03:34;9.20;99.90
11922;DHT22;6021;51.182;3.160;2022-11-15T08:06:03;9.20;99.90
11922;DHT22;6021;51.182;3.160;2022-11-15T08:08:32;9.50;99.90
11922;DHT22;6021;51.182;3.160;2022-11-15T08:11:00;9.50;99.90
11922;DHT22;6021;51.182;3.160;2022-11-15T08:13:29;9.40;99.90
11922;DHT22;6021;51.182;3.160;2022-11-15T08:15:59;9.40;99.90
11922;DHT22;6021;51.182;3.160;2022-11-15T08:18:28;9.40;99.90
11922;DHT22;6021;51.182;3.160;2022-11-15T08:20:58;9.50;99.90
11922;DHT22;6021;51.182;3.160;2022-11-15T08:23:27;9.40;99.90
11922;DHT22;6021;51.182;3.160;2022-11-15T08:26:03;9.50;99.90
11922;DHT22;6021;51.182;3.160;2022-11-15T08:28:32;9.50;99.90
11922;DHT22;6021;51.182;3.160;2022-11-15T08:31:01;9.50;99.90
11922;DHT22;6021;51.182;3.160;2022-11-15T08:33:31;9.50;99.90
11922;DHT22;6021;51.182;3.160;2022-11-15T08:36:00;9.50;99.90
11922;DHT22;6021;51.182;3.160;2022-11-15T08:38:29;9.50;99.90
11922;DHT22;6021;51.182;3.160;2022-11-15T08:41:03;9.50;99.90
11922;DHT22;6021;51.182;3.160;2022-11-15T08:43:31;9.50;99.90
11922;DHT22;6021;51.182;3.160;2022-11-15T08:46:00;9.60;99.90
11922;DHT22;6021;51.182;3.160;2022-11-15T08:48:29;9.60;99.90
11922;DHT22;6021;51.182;3.160;2022-11-15T08:50:57;9.70;99.90
11922;DHT22;6021;51.182;3.160;2022-11-15T08:53:26;9.80;99.90
11922;DHT22;6021;51.182;3.160;2022-11-15T08:55:54;9.90;99.90
11922;DHT22;6021;51.182;3.160;2022-11-15T08:58:22;10.00;99.90
11922;DHT22;6021;51.182;3.160;2022-11-15T09:00:51;10.00;99.90
11922;DHT22;6021;51.182;3.160;2022-11-15T09:03:19;10.10;99.90
11922;DHT22;6021;51.182;3.160;2022-11-15T09:05:48;10.30;99.90
11922;DHT22;6021;51.182;3.160;2022-11-15T09:08:16;10.20;99.90
11922;DHT22;6021;51.182;3.160;2022-11-15T09:10:45;10.30;99.90
11922;DHT22;6021;51.182;3.160;2022-11-15T09:13:13;10.40;99.90
11922;DHT22;6021;51.182;3.160;2022-11-15T09:15:42;10.30;99.90
11922;DHT22;6021;51.182;3.160;2022-11-15T09:18:10;10.60;99.90
11922;DHT22;6021;51.182;3.160;2022-11-15T09:20:38;10.60;99.90
11922;DHT22;6021;51.182;3.160;2022-11-15T09:23:07;10.70;99.90
11922;DHT22;6021;51.182;3.160;2022-11-15T09:25:35;10.50;99.90
11922;DHT22;6021;51.182;3.160;2022-11-15T09:28:06;10.80;99.90
11922;DHT22;6021;51.182;3.160;2022-11-15T09:30:35;11.00;99.90
11922;DHT22;6021;51.182;3.160;2022-11-15T09:33:10;11.00;99.90
11922;DHT22;6021;51.182;3.160;2022-11-15T09:35:39;11.00;99.90
11922;DHT22;6021;51.182;3.160;2022-11-15T09:38:08;11.00;99.90
11922;DHT22;6021;51.182;3.160;2022-11-15T09:40:37;10.80;99.90
11922;DHT22;6021;51.182;3.160;2022-11-15T09:43:38;10.90;99.90
11922;DHT22;6021;51.182;3.160;2022-11-15T09:46:15;10.90;99.90
11922;DHT22;6021;51.182;3.160;2022-11-15T09:48:57;10.90;99.90
11922;DHT22;6021;51.182;3.160;2022-11-15T09:51:29;10.90;99.90
11922;DHT22;6021;51.182;3.160;2022-11-15T09:56:37;11.00;99.90
11922;DHT22;6021;51.182;3.160;2022-11-15T10:02:03;11.20;99.90
11922;DHT22;6021;51.182;3.160;2022-11-15T10:04:30;11.20;99.90
11922;DHT22;6021;51.182;3.160;2022-11-15T10:07:22;11.20;99.90
11922;DHT22;6021;51.182;3.160;2022-11-15T10:09:59;11.10;99.90
11922;DHT22;6021;51.182;3.160;2022-11-15T10:12:25;11.60;99.90
11922;DHT22;6021;51.182;3.160;2022-11-15T10:15:13;11.10;99.90
11922;DHT22;6021;51.182;3.160;2022-11-15T10:20:29;11.00;99.90
11922;DHT22;6021;51.182;3.160;2022-11-15T10:23:02;11.40;99.90
11922;DHT22;6021;51.182;3.160;2022-11-15T10:25:33;11.40;99.90
11922;DHT22;6021;51.182;3.160;2022-11-15T10:28:17;11.70;99.90
11922;DHT22;6021;51.182;3.160;2022-11-15T10:30:53;11.60;99.90
11922;DHT22;6021;51.182;3.160;2022-11-15T10:33:38;11.50;96.90
11922;DHT22;6021;51.182;3.160;2022-11-15T10:41:29;11.60;89.40
11922;DHT22;6021;51.182;3.160;2022-11-15T10:46:40;11.60;91.00
11922;DHT22;6021;51.182;3.160;2022-11-15T10:51:51;11.90;82.20
11922;DHT22;6021;51.182;3.160;2022-11-15T10:56:58;11.70;81.30
11922;DHT22;6021;51.182;3.160;2022-11-15T10:59:28;11.70;69.50
11922;DHT22;6021;51.182;3.160;2022-11-15T11:01:58;11.70;70.90
11922;DHT22;6021;51.182;3.160;2022-11-15T11:04:29;12.00;74.00
11922;DHT22;6021;51.182;3.160;2022-11-15T11:07:00;11.80;71.50
11922;DHT22;6021;51.182;3.160;2022-11-15T11:09:40;12.00;68.40
11922;DHT22;6021;51.182;3.160;2022-11-15T11:12:09;11.80;70.40
11922;DHT22;6021;51.182;3.160;2022-11-15T11:14:38;11.80;64.30
11922;DHT22;6021;51.182;3.160;2022-11-15T11:33:42;12.20;43.10
11922;DHT22;6021;51.182;3.160;2022-11-15T11:42:17;12.20;29.20
11922;DHT22;6021;51.182;3.160;2022-11-15T11:47:34;12.30;25.20
11922;DHT22;6021;51.182;3.160;2022-11-15T11:50:18;12.30;25.40
11922;DHT22;6021;51.182;3.160;2022-11-15T11:52:59;12.70;19.00
11922;DHT22;6021;51.182;3.160;2022-11-15T11:55:31;12.60;20.70
11922;DHT22;6021;51.182;3.160;2022-11-15T11:58:17;12.30;24.40
11922;DHT22;6021;51.182;3.160;2022-11-15T12:00:59;12.30;24.20
11922;DHT22;6021;51.182;3.160;2022-11-15T12:03:34;12.30;25.10
11922;DHT22;6021;51.182;3.160;2022-11-15T12:06:04;12.30;32.50
11922;DHT22;6021;51.182;3.160;2022-11-15T12:08:46;12.30;35.60
11922;DHT22;6021;51.182;3.160;2022-11-15T12:11:23;12.20;36.20
11922;DHT22;6021;51.182;3.160;2022-11-15T12:13:56;12.40;28.10
11922;DHT22;6021;51.182;3.160;2022-11-15T12:16:28;12.40;27.10
11922;DHT22;6021;51.182;3.160;2022-11-15T12:19:00;12.40;24.30
11922;DHT22;6021;51.182;3.160;2022-11-15T12:24:22;12.40;25.60
11922;DHT22;6021;51.182;3.160;2022-11-15T12:27:18;12.50;25.10
11922;DHT22;6021;51.182;3.160;2022-11-15T12:29:54;12.50;25.30
11922;DHT22;6021;51.182;3.160;2022-11-15T12:32:35;12.50;20.40
11922;DHT22;6021;51.182;3.160;2022-11-15T12:35:02;12.60;17.00
11922;DHT22;6021;51.182;3.160;2022-11-15T12:43:07;12.60;13.80
11922;DHT22;6021;51.182;3.160;2022-11-15T12:45:38;12.60;10.20
11922;DHT22;6021;51.182;3.160;2022-11-15T12:53:33;12.50;20.60
11922;DHT22;6021;51.182;3.160;2022-11-15T12:56:16;12.60;20.50
11922;DHT22;6021;51.182;3.160;2022-11-15T12:58:59;12.50;20.70
11922;DHT22;6021;51.182;3.160;2022-11-15T13:07:03;12.40;29.10
11922;DHT22;6021;51.182;3.160;2022-11-15T13:12:09;12.30;52.00
11922;DHT22;6021;51.182;3.160;2022-11-15T13:14:45;12.40;66.70
11922;DHT22;6021;51.182;3.160;2022-11-15T13:22:26;12.40;99.90
11922;DHT22;6021;51.182;3.160;2022-11-15T13:25:15;12.20;99.90
11922;DHT22;6021;51.182;3.160;2022-11-15T13:27:49;12.20;99.90
11922;DHT22;6021;51.182;3.160;2022-11-15T13:30:25;12.10;99.90
11922;DHT22;6021;51.182;3.160;2022-11-15T13:32:55;12.30;99.90
11922;DHT22;6021;51.182;3.160;2022-11-15T13:35:26;12.10;99.90
11922;DHT22;6021;51.182;3.160;2022-11-15T13:37:56;12.20;99.90
11922;DHT22;6021;51.182;3.160;2022-11-15T13:40:29;12.00;99.90
11922;DHT22;6021;51.182;3.160;2022-11-15T13:42:58;11.90;99.90
11922;DHT22;6021;51.182;3.160;2022-11-15T13:45:27;11.80;99.90
11922;DHT22;6021;51.182;3.160;2022-11-15T13:47:57;12.00;99.90
11922;DHT22;6021;51.182;3.160;2022-11-15T13:50:29;12.00;99.90
11922;DHT22;6021;51.182;3.160;2022-11-15T13:52:59;11.90;99.90
11922;DHT22;6021;51.182;3.160;2022-11-15T13:55:30;12.00;99.90
11922;DHT22;6021;51.182;3.160;2022-11-15T13:58:02;11.80;99.90
11922;DHT22;6021;51.182;3.160;2022-11-15T14:00:41;11.70;99.90
11922;DHT22;6021;51.182;3.160;2022-11-15T14:03:33;11.70;99.90
11922;DHT22;6021;51.182;3.160;2022-11-15T14:06:10;11.70;99.90
11922;DHT22;6021;51.182;3.160;2022-11-15T14:11:18;11.40;99.90
11922;DHT22;6021;51.182;3.160;2022-11-15T14:16:52;11.40;99.90
11922;DHT22;6021;51.182;3.160;2022-11-15T14:22:23;11.10;99.90
11922;DHT22;6021;51.182;3.160;2022-11-15T14:25:19;11.30;99.90
11922;DHT22;6021;51.182;3.160;2022-11-15T14:28:15;11.20;99.90
11922;DHT22;6021;51.182;3.160;2022-11-15T14:30:44;11.30;99.90
11922;DHT22;6021;51.182;3.160;2022-11-15T14:33:23;11.10;99.90
11922;DHT22;6021;51.182;3.160;2022-11-15T14:35:52;11.10;99.90
11922;DHT22;6021;51.182;3.160;2022-11-15T14:38:23;11.10;99.90
11922;DHT22;6021;51.182;3.160;2022-11-15T14:40:51;11.00;99.90
11922;DHT22;6021;51.182;3.160;2022-11-15T14:43:21;11.00;99.90
11922;DHT22;6021;51.182;3.160;2022-11-15T14:45:49;10.90;99.90
11922;DHT22;6021;51.182;3.160;2022-11-15T14:48:18;10.90;99.90
11922;DHT22;6021;51.182;3.160;2022-11-15T14:50:46;11.10;99.90
11922;DHT22;6021;51.182;3.160;2022-11-15T14:53:16;10.90;99.90
11922;DHT22;6021;51.182;3.160;2022-11-15T14:55:45;10.90;99.90
11922;DHT22;6021;51.182;3.160;2022-11-15T14:58:13;11.00;99.90
11922;DHT22;6021;51.182;3.160;2022-11-15T15:00:42;10.90;99.90
11922;DHT22;6021;51.182;3.160;2022-11-15T15:03:10;10.90;99.90
11922;DHT22;6021;51.182;3.160;2022-11-15T15:05:41;10.90;99.90
11922;DHT22;6021;51.182;3.160;2022-11-15T15:08:10;10.90;99.90
11922;DHT22;6021;51.182;3.160;2022-11-15T15:10:41;10.90;99.90
11922;DHT22;6021;51.182;3.160;2022-11-15T15:13:18;10.90;99.90
11922;DHT22;6021;51.182;3.160;2022-11-15T15:15:48;10.70;99.90
11922;DHT22;6021;51.182;3.160;2022-11-15T15:18:17;10.70;99.90
11922;DHT22;6021;51.182;3.160;2022-11-15T15:20:49;10.90;99.90
11922;DHT22;6021;51.182;3.160;2022-11-15T15:23:19;11.00;99.90
11922;DHT22;6021;51.182;3.160;2022-11-15T15:25:48;10.90;99.90
11922;DHT22;6021;51.182;3.160;2022-11-15T15:28:16;10.90;99.90
11922;DHT22;6021;51.182;3.160;2022-11-15T15:30:44;10.80;99.90
11922;DHT22;6021;51.182;3.160;2022-11-15T15:33:13;10.90;99.90
11922;DHT22;6021;51.182;3.160;2022-11-15T15:35:42;10.70;99.90
11922;DHT22;6021;51.182;3.160;2022-11-15T15:38:13;10.90;99.90
11922;DHT22;6021;51.182;3.160;2022-11-15T15:40:42;10.90;99.90
11922;DHT22;6021;51.182;3.160;2022-11-15T15:43:10;10.90;99.90
11922;DHT22;6021;51.182;3.160;2022-11-15T15:45:40;11.00;99.90
11922;DHT22;6021;51.182;3.160;2022-11-15T15:48:16;11.00;99.90
11922;DHT22;6021;51.182;3.160;2022-11-15T15:50:44;11.20;99.90
11922;DHT22;6021;51.182;3.160;2022-11-15T15:53:14;11.30;99.90
11922;DHT22;6021;51.182;3.160;2022-11-15T15:55:42;11.30;99.90
11922;DHT22;6021;51.182;3.160;2022-11-15T15:58:11;11.00;99.90
11922;DHT22;6021;51.182;3.160;2022-11-15T16:00:39;11.00;99.90
11922;DHT22;6021;51.182;3.160;2022-11-15T16:03:08;11.00;99.90
11922;DHT22;6021;51.182;3.160;2022-11-15T16:05:36;10.90;99.90
11922;DHT22;6021;51.182;3.160;2022-11-15T16:08:04;10.90;99.90
11922;DHT22;6021;51.182;3.160;2022-11-15T16:10:33;11.00;99.90
11922;DHT22;6021;51.182;3.160;2022-11-15T16:13:02;10.90;99.90
11922;DHT22;6021;51.182;3.160;2022-11-15T16:15:31;11.10;99.90
11922;DHT22;6021;51.182;3.160;2022-11-15T16:18:01;11.10;99.90
11922;DHT22;6021;51.182;3.160;2022-11-15T16:20:38;11.20;99.90
11922;DHT22;6021;51.182;3.160;2022-11-15T16:23:08;11.30;99.90
11922;DHT22;6021;51.182;3.160;2022-11-15T16:28:19;11.40;99.90
11922;DHT22;6021;51.182;3.160;2022-11-15T16:30:58;11.40;99.90
11922;DHT22;6021;51.182;3.160;2022-11-15T16:33:19;11.40;99.90
11922;DHT22;6021;51.182;3.160;2022-11-15T16:35:47;11.30;99.90
11922;DHT22;6021;51.182;3.160;2022-11-15T16:38:16;11.60;99.90
11922;DHT22;6021;51.182;3.160;2022-11-15T16:40:45;11.50;99.90
11922;DHT22;6021;51.182;3.160;2022-11-15T16:43:13;11.40;99.90
11922;DHT22;6021;51.182;3.160;2022-11-15T16:45:42;11.60;99.90
11922;DHT22;6021;51.182;3.160;2022-11-15T16:48:24;11.40;99.90
11922;DHT22;6021;51.182;3.160;2022-11-15T16:50:43;11.30;99.90
11922;DHT22;6021;51.182;3.160;2022-11-15T16:53:12;11.60;99.90
11922;DHT22;6021;51.182;3.160;2022-11-15T16:55:40;11.60;99.90
11922;DHT22;6021;51.182;3.160;2022-11-15T16:58:09;11.60;99.90
11922;DHT22;6021;51.182;3.160;2022-11-15T17:03:15;11.90;99.90
11922;DHT22;6021;51.182;3.160;2022-11-15T17:05:43;12.00;99.90
11922;DHT22;6021;51.182;3.160;2022-11-15T17:08:11;11.60;99.90
11922;DHT22;6021;51.182;3.160;2022-11-15T17:13:12;11.70;99.90
11922;DHT22;6021;51.182;3.160;2022-11-15T17:15:44;12.00;99.90
11922;DHT22;6021;51.182;3.160;2022-11-15T17:18:12;11.70;99.90
11922;DHT22;6021;51.182;3.160;2022-11-15T17:20:42;11.60;99.90
11922;DHT22;6021;51.182;3.160;2022-11-15T17:25:41;11.80;99.90
11922;DHT22;6021;51.182;3.160;2022-11-15T17:28:10;11.70;99.90
11922;DHT22;6021;51.182;3.160;2022-11-15T17:30:40;11.90;99.90
11922;DHT22;6021;51.182;3.160;2022-11-15T17:33:09;11.70;99.90
11922;DHT22;6021;51.182;3.160;2022-11-15T17:35:37;11.60;99.90
11922;DHT22;6021;51.182;3.160;2022-11-15T17:38:06;11.70;99.90
11922;DHT22;6021;51.182;3.160;2022-11-15T17:40:34;11.80;99.90
11922;DHT22;6021;51.182;3.160;2022-11-15T17:43:04;11.70;99.90
11922;DHT22;6021;51.182;3.160;2022-11-15T17:45:33;11.80;99.90
11922;DHT22;6021;51.182;3.160;2022-11-15T17:48:01;11.70;99.90
11922;DHT22;6021;51.182;3.160;2022-11-15T17:50:30;11.80;99.90
11922;DHT22;6021;51.182;3.160;2022-11-15T17:53:00;11.80;99.90
11922;DHT22;6021;51.182;3.160;2022-11-15T17:55:29;11.70;99.90
11922;DHT22;6021;51.182;3.160;2022-11-15T17:57:57;11.80;99.90
11922;DHT22;6021;51.182;3.160;2022-11-15T18:00:25;11.80;99.90
11922;DHT22;6021;51.182;3.160;2022-11-15T18:02:55;11.90;99.90
11922;DHT22;6021;51.182;3.160;2022-11-15T18:05:24;12.00;99.90
11922;DHT22;6021;51.182;3.160;2022-11-15T18:07:52;11.70;99.90
11922;DHT22;6021;51.182;3.160;2022-11-15T18:10:20;11.80;99.90
11922;DHT22;6021;51.182;3.160;2022-11-15T18:12:48;11.80;99.90
11922;DHT22;6021;51.182;3.160;2022-11-15T18:15:17;11.80;99.90
11922;DHT22;6021;51.182;3.160;2022-11-15T18:17:49;11.80;99.90
11922;DHT22;6021;51.182;3.160;2022-11-15T18:20:22;11.80;99.90